createdAt,value
2023-04-25T00:00:11.972Z,10.45
2023-04-25T00:01:16.746Z,10.41
2023-04-25T00:02:20.277Z,10.38
2023-04-25T00:03:24.954Z,10.30
2023-04-25T00:04:29.214Z,10.32
2023-04-25T00:05:33.021Z,10.34
2023-04-25T00:06:38.303Z,10.31
2023-04-25T00:07:44.214Z,10.33
2023-04-25T00:08:47.530Z,10.32
2023-04-25T00:09:50.999Z,10.31
2023-04-25T00:10:54.184Z,10.30
2023-04-25T00:11:58.434Z,10.28
2023-04-25T00:13:03.520Z,10.19
2023-04-25T00:14:07.054Z,10.19
2023-04-25T00:15:14.200Z,10.14
2023-04-25T00:16:17.524Z,10.17
2023-04-25T00:17:20.398Z,10.17
2023-04-25T00:18:23.713Z,10.19
2023-04-25T00:19:27.645Z,10.19
2023-04-25T00:20:31.453Z,10.18
2023-04-25T00:21:34.857Z,10.17
2023-04-25T00:22:41.355Z,10.11
2023-04-25T00:23:44.736Z,10.13
2023-04-25T00:24:47.519Z,10.12
2023-04-25T00:25:53.997Z,10.10
2023-04-25T00:26:56.513Z,10.08
2023-04-25T00:27:59.753Z,10.07
2023-04-25T00:29:03.374Z,10.06
2023-04-25T00:30:07.106Z,10.04
2023-04-25T00:31:11.190Z,9.96
2023-04-25T00:32:14.304Z,9.94
2023-04-25T00:33:16.651Z,9.88
2023-04-25T00:34:19.889Z,9.86
2023-04-25T00:35:23.337Z,9.92
2023-04-25T00:36:27.310Z,9.94
2023-04-25T00:37:30.822Z,9.92
2023-04-25T00:38:33.006Z,9.91
2023-04-25T00:39:36.516Z,9.92
2023-04-25T00:40:38.693Z,9.95
2023-04-25T00:41:42.942Z,9.95
2023-04-25T00:42:46.761Z,9.95
2023-04-25T00:43:51.419Z,9.92
2023-04-25T00:44:57.878Z,9.95
2023-04-25T00:46:02.154Z,9.92
2023-04-25T00:47:06.277Z,9.91
2023-04-25T00:48:09.547Z,9.87
2023-04-25T00:49:14.608Z,9.90
2023-04-25T00:50:20.894Z,9.90
2023-04-25T00:51:26.263Z,9.91
2023-04-25T00:52:29.603Z,9.91
2023-04-25T00:53:33.622Z,9.86
2023-04-25T00:54:37.088Z,9.85
2023-04-25T00:55:40.209Z,9.80
2023-04-25T00:56:43.638Z,9.81
2023-04-25T00:57:47.953Z,9.78
2023-04-25T00:58:52.224Z,9.73
2023-04-25T00:59:56.373Z,9.74
2023-04-25T01:00:59.568Z,9.73
2023-04-25T01:02:02.193Z,9.79
2023-04-25T01:03:07.089Z,9.80
2023-04-25T01:04:10.677Z,9.86
2023-04-25T01:05:14.953Z,9.81
2023-04-25T01:06:19.274Z,9.87
2023-04-25T01:07:24.573Z,9.86
2023-04-25T01:08:28.583Z,9.85
2023-04-25T01:09:33.422Z,9.84
2023-04-25T01:10:37.698Z,9.82
2023-04-25T01:11:41.780Z,9.78
2023-04-25T01:12:45.030Z,9.74
2023-04-25T01:13:48.319Z,9.72
2023-04-25T01:14:51.826Z,9.69
2023-04-25T01:15:54.133Z,9.72
2023-04-25T01:16:57.448Z,9.68
2023-04-25T01:18:01.668Z,9.70
2023-04-25T01:19:07.170Z,9.73
2023-04-25T01:20:12.074Z,9.74
2023-04-25T01:21:16.505Z,9.71
2023-04-25T01:22:19.789Z,9.69
2023-04-25T01:23:22.936Z,9.67
2023-04-25T01:24:26.444Z,9.64
2023-04-25T01:25:30.148Z,9.63
2023-04-25T01:26:34.175Z,9.57
2023-04-25T01:27:38.287Z,9.52
2023-04-25T01:28:44.516Z,9.55
2023-04-25T01:29:48.744Z,9.55
2023-04-25T01:30:52.029Z,9.56
2023-04-25T01:31:56.164Z,9.59
2023-04-25T01:33:00.754Z,9.61
2023-04-25T01:34:05.478Z,9.61
2023-04-25T01:35:12.722Z,9.62
2023-04-25T01:36:16.030Z,9.61
2023-04-25T01:37:20.961Z,9.61
2023-04-25T01:38:24.706Z,9.57
2023-04-25T01:39:27.069Z,9.57
2023-04-25T01:40:30.987Z,9.53
2023-04-25T01:41:37.140Z,9.46
2023-04-25T01:42:42.127Z,9.43
2023-04-25T01:43:46.764Z,9.38
2023-04-25T01:44:50.353Z,9.38
2023-04-25T01:45:53.843Z,9.41
2023-04-25T01:46:57.332Z,9.40
2023-04-25T01:48:00.988Z,9.40
2023-04-25T01:49:03.525Z,9.43
2023-04-25T01:50:08.090Z,9.47
2023-04-25T01:51:14.476Z,9.51
2023-04-25T01:52:17.196Z,9.50
2023-04-25T01:53:20.497Z,9.53
2023-04-25T01:54:23.052Z,9.56
2023-04-25T01:55:26.482Z,9.58
2023-04-25T01:56:32.894Z,9.50
2023-04-25T01:57:37.079Z,9.51
2023-04-25T01:58:40.934Z,9.53
2023-04-25T02:00:04.239Z,9.50
2023-04-25T02:01:16.275Z,9.46
2023-04-25T02:02:21.017Z,9.42
2023-04-25T02:03:24.686Z,9.42
2023-04-25T02:04:29.823Z,9.40
2023-04-25T02:05:37.970Z,9.38
2023-04-25T02:06:43.059Z,9.39
2023-04-25T02:07:46.503Z,9.36
2023-04-25T02:08:49.072Z,9.36
2023-04-25T02:09:54.267Z,9.31
2023-04-25T02:10:59.590Z,9.30
2023-04-25T02:12:04.902Z,9.35
2023-04-25T02:13:13.835Z,9.37
2023-04-25T02:14:19.945Z,9.38
2023-04-25T02:15:30.828Z,9.35
2023-04-25T02:17:42.029Z,9.30
2023-04-25T02:18:46.118Z,9.29
2023-04-25T02:19:48.430Z,9.29
2023-04-25T02:20:51.467Z,9.27
2023-04-25T02:21:54.520Z,9.28
2023-04-25T02:22:59.908Z,9.28
2023-04-25T02:24:08.168Z,9.28
2023-04-25T02:25:13.031Z,9.24
2023-04-25T02:26:16.431Z,9.21
2023-04-25T02:27:21.316Z,9.17
2023-04-25T02:28:26.451Z,9.20
2023-04-25T02:29:30.555Z,9.21
2023-04-25T02:30:32.905Z,9.21
2023-04-25T02:31:36.324Z,9.24
2023-04-25T02:32:40.639Z,9.26
2023-04-25T02:33:43.788Z,9.24
2023-04-25T02:34:48.212Z,9.25
2023-04-25T02:35:55.332Z,9.23
2023-04-25T02:37:00.360Z,9.22
2023-04-25T02:38:03.737Z,9.22
2023-04-25T02:39:06.555Z,9.22
2023-04-25T02:40:09.333Z,9.11
2023-04-25T02:41:11.565Z,9.13
2023-04-25T02:42:14.571Z,9.14
2023-04-25T02:43:17.873Z,9.14
2023-04-25T02:44:22.410Z,9.16
2023-04-25T02:45:25.656Z,9.16
2023-04-25T02:46:39.016Z,9.15
2023-04-25T02:47:34.897Z,9.17
2023-04-25T02:48:38.153Z,9.16
2023-04-25T02:49:41.719Z,9.14
2023-04-25T02:50:45.902Z,9.11
2023-04-25T02:51:51.059Z,9.07
2023-04-25T02:52:56.513Z,9.08
2023-04-25T02:54:01.845Z,9.06
2023-04-25T02:55:05.386Z,9.00
2023-04-25T02:56:09.985Z,9.03
2023-04-25T02:57:13.330Z,9.10
2023-04-25T02:58:18.129Z,9.14
2023-04-25T02:59:23.378Z,9.16
2023-04-25T03:00:28.013Z,9.20
2023-04-25T03:01:31.272Z,9.16
2023-04-25T03:02:37.360Z,9.14
2023-04-25T03:03:41.170Z,9.10
2023-04-25T03:04:44.552Z,9.11
2023-04-25T03:05:48.278Z,9.17
2023-04-25T03:06:54.669Z,9.21
2023-04-25T03:07:58.230Z,9.22
2023-04-25T03:09:02.518Z,9.28
2023-04-25T03:10:07.273Z,9.33
2023-04-25T03:11:10.890Z,9.34
2023-04-25T03:12:14.117Z,9.37
2023-04-25T03:13:17.134Z,9.40
2023-04-25T03:14:20.617Z,9.46
2023-04-25T03:15:24.785Z,9.46
2023-04-25T03:16:29.571Z,9.36
2023-04-25T03:17:32.189Z,9.28
2023-04-25T03:18:35.504Z,9.28
2023-04-25T03:19:38.076Z,9.37
2023-04-25T03:20:44.434Z,9.39
2023-04-25T03:21:51.793Z,9.45
2023-04-25T03:22:55.970Z,9.53
2023-04-25T03:23:58.909Z,9.60
2023-04-25T03:25:02.287Z,9.67
2023-04-25T03:26:05.534Z,9.79
2023-04-25T03:27:08.970Z,9.88
2023-04-25T03:28:11.982Z,9.92
2023-04-25T03:29:15.081Z,9.95
2023-04-25T03:30:18.760Z,9.99
2023-04-25T03:31:22.228Z,10.05
2023-04-25T03:32:25.528Z,10.10
2023-04-25T03:33:29.557Z,10.18
2023-04-25T03:34:32.864Z,10.34
2023-04-25T03:35:35.276Z,10.42
2023-04-25T03:36:40.974Z,10.51
2023-04-25T03:37:46.900Z,10.68
2023-04-25T03:38:52.007Z,10.85
2023-04-25T03:39:54.894Z,10.95
2023-04-25T03:40:59.365Z,11.19
2023-04-25T03:42:07.198Z,11.53
2023-04-25T03:43:09.780Z,11.74
2023-04-25T03:44:12.837Z,11.90
2023-04-25T03:45:16.266Z,11.97
2023-04-25T03:46:19.790Z,11.95
2023-04-25T03:47:24.598Z,12.02
2023-04-25T03:48:29.261Z,12.04
2023-04-25T03:49:31.774Z,12.00
2023-04-25T03:50:36.836Z,11.98
2023-04-25T03:51:40.143Z,11.84
2023-04-25T03:52:43.938Z,11.64
2023-04-25T03:53:47.094Z,11.47
2023-04-25T03:54:58.799Z,11.34
2023-04-25T03:56:02.354Z,11.20
2023-04-25T03:57:07.282Z,11.24
2023-04-25T03:58:11.703Z,11.25
2023-04-25T03:59:15.029Z,11.36
2023-04-25T04:00:18.495Z,11.44
2023-04-25T04:01:20.757Z,11.46
2023-04-25T04:02:24.243Z,11.49
2023-04-25T04:03:29.602Z,11.60
2023-04-25T04:04:33.581Z,11.67
2023-04-25T04:05:38.193Z,11.71
2023-04-25T04:06:44.222Z,11.73
2023-04-25T04:07:49.207Z,11.68
2023-04-25T04:08:54.030Z,11.89
2023-04-25T04:09:58.693Z,12.28
2023-04-25T04:11:03.969Z,12.62
2023-04-25T04:12:09.187Z,12.66
2023-04-25T04:13:14.291Z,12.63
2023-04-25T04:14:18.053Z,12.46
2023-04-25T04:15:23.342Z,12.56
2023-04-25T04:16:26.902Z,12.79
2023-04-25T04:17:32.653Z,12.63
2023-04-25T04:18:35.214Z,12.67
2023-04-25T04:19:38.629Z,12.63
2023-04-25T04:20:43.673Z,12.58
2023-04-25T04:21:46.939Z,12.63
2023-04-25T04:22:50.226Z,12.57
2023-04-25T04:23:53.155Z,12.53
2023-04-25T04:24:57.142Z,12.49
2023-04-25T04:26:12.374Z,12.75
2023-04-25T04:27:30.217Z,13.27
2023-04-25T04:28:53.188Z,13.56
2023-04-25T04:30:00.785Z,13.88
2023-04-25T04:31:27.197Z,14.29
2023-04-25T04:32:31.341Z,15.13
2023-04-25T04:33:35.057Z,16.04
2023-04-25T04:34:43.173Z,16.80
2023-04-25T04:35:48.952Z,17.12
2023-04-25T04:36:53.037Z,17.08
2023-04-25T04:37:56.871Z,16.60
2023-04-25T04:39:03.548Z,16.07
2023-04-25T04:40:17.732Z,15.70
2023-04-25T04:41:35.725Z,15.71
2023-04-25T04:42:53.644Z,16.00
2023-04-25T04:44:08.320Z,15.97
2023-04-25T04:45:14.179Z,16.11
2023-04-25T04:46:39.965Z,16.19
2023-04-25T04:47:51.407Z,16.11
2023-04-25T04:49:00.676Z,15.96
2023-04-25T04:50:18.451Z,16.34
2023-04-25T04:51:39.258Z,17.44
2023-04-25T04:52:43.860Z,18.01
2023-04-25T04:54:01.558Z,18.53
2023-04-25T04:55:10.064Z,19.40
2023-04-25T04:57:39.665Z,21.63
2023-04-25T04:59:01.460Z,21.45
2023-04-25T05:00:08.862Z,21.94
2023-04-25T05:01:31.123Z,22.72
2023-04-25T05:02:43.268Z,23.20
2023-04-25T05:04:05.283Z,24.04
2023-04-25T05:05:13.629Z,24.53
2023-04-25T05:06:24.787Z,25.06
2023-04-25T05:07:46.587Z,25.15
2023-04-25T05:08:58.324Z,25.96
2023-04-25T05:10:16.800Z,26.38
2023-04-25T05:11:24.412Z,26.70
2023-04-25T05:13:54.150Z,26.90
2023-04-25T05:15:17.959Z,27.28
2023-04-25T05:16:29.248Z,27.34
2023-04-25T05:17:34.449Z,27.74
2023-04-25T05:18:56.631Z,27.85
2023-04-25T05:20:07.199Z,27.74
2023-04-25T05:21:12.504Z,28.22
2023-04-25T05:22:28.223Z,28.14
2023-04-25T05:23:35.701Z,27.64
2023-04-25T05:24:41.292Z,27.94
2023-04-25T05:25:50.115Z,27.49
2023-04-25T05:27:01.398Z,27.42
2023-04-25T05:28:09.582Z,27.96
2023-04-25T05:29:16.098Z,28.40
2023-04-25T05:30:24.300Z,28.50
2023-04-25T05:31:39.104Z,28.20
2023-04-25T05:32:46.734Z,28.28
2023-04-25T05:33:51.781Z,27.83
2023-04-25T05:34:55.817Z,27.52
2023-04-25T05:36:02.193Z,27.77
2023-04-25T05:37:06.419Z,27.95
2023-04-25T05:38:12.440Z,27.61
2023-04-25T05:39:35.386Z,27.36
2023-04-25T05:40:46.502Z,26.45
2023-04-25T05:41:51.843Z,26.31
2023-04-25T05:42:57.156Z,25.78
2023-04-25T05:44:22.794Z,25.57
2023-04-25T05:45:28.407Z,25.98
2023-04-25T05:46:48.927Z,26.48
2023-04-25T05:47:56.386Z,26.55
2023-04-25T05:49:20.077Z,25.87
2023-04-25T05:50:37.585Z,25.22
2023-04-25T05:51:42.857Z,25.52
2023-04-25T05:52:56.795Z,25.99
2023-04-25T05:54:12.636Z,25.41
2023-04-25T05:55:16.455Z,25.35
2023-04-25T05:56:19.978Z,25.02
2023-04-25T05:57:30.574Z,24.99
2023-04-25T05:58:33.959Z,24.71
2023-04-25T05:59:38.348Z,25.26
2023-04-25T06:00:44.428Z,25.40
2023-04-25T06:01:48.767Z,24.87
2023-04-25T06:02:51.422Z,24.05
2023-04-25T06:03:55.424Z,23.60
2023-04-25T06:04:59.947Z,23.60
2023-04-25T06:06:02.896Z,23.22
2023-04-25T06:07:07.224Z,23.35
2023-04-25T06:08:13.654Z,23.50
2023-04-25T06:09:19.596Z,24.16
2023-04-25T06:10:24.065Z,24.72
2023-04-25T06:11:28.768Z,25.42
2023-04-25T06:12:32.486Z,26.52
2023-04-25T06:13:37.702Z,26.65
2023-04-25T06:14:40.120Z,27.01
2023-04-25T06:15:44.331Z,26.46
2023-04-25T06:16:47.643Z,26.14
2023-04-25T06:17:51.998Z,26.32
2023-04-25T06:18:55.611Z,26.36
2023-04-25T06:20:00.151Z,25.76
2023-04-25T06:21:04.176Z,24.88
2023-04-25T06:22:09.063Z,25.31
2023-04-25T06:23:13.996Z,25.41
2023-04-25T06:24:20.047Z,25.61
2023-04-25T06:25:23.523Z,25.51
2023-04-25T06:26:27.605Z,25.45
2023-04-25T06:27:34.866Z,25.71
2023-04-25T06:28:38.206Z,25.44
2023-04-25T06:29:41.824Z,25.48
2023-04-25T06:30:46.071Z,25.16
2023-04-25T06:31:50.913Z,26.14
2023-04-25T06:32:53.852Z,26.67
2023-04-25T06:34:00.444Z,27.35
2023-04-25T06:35:04.470Z,27.91
2023-04-25T06:36:09.891Z,28.47
2023-04-25T06:37:13.676Z,29.27
2023-04-25T06:38:16.821Z,30.48
2023-04-25T06:39:33.256Z,31.53
2023-04-25T06:40:36.778Z,31.96
2023-04-25T06:41:40.536Z,32.48
2023-04-25T06:42:45.568Z,32.58
2023-04-25T06:44:01.046Z,32.65
2023-04-25T06:45:09.915Z,33.49
2023-04-25T06:46:14.667Z,34.14
2023-04-25T06:47:19.848Z,33.52
2023-04-25T06:48:23.399Z,32.69
2023-04-25T06:49:26.280Z,33.47
2023-04-25T06:50:29.882Z,34.10
2023-04-25T06:51:33.397Z,34.63
2023-04-25T06:52:35.748Z,35.08
2023-04-25T06:53:41.964Z,35.02
2023-04-25T06:54:47.352Z,34.36
2023-04-25T06:55:54.609Z,34.31
2023-04-25T06:56:59.197Z,33.62
2023-04-25T06:58:05.580Z,33.71
2023-04-25T06:59:27.058Z,34.45
2023-04-25T07:00:32.192Z,34.08
2023-04-25T07:01:37.831Z,33.88
2023-04-25T07:02:45.045Z,33.87
2023-04-25T07:03:52.514Z,33.49
2023-04-25T07:04:58.143Z,34.28
2023-04-25T07:06:00.948Z,34.04
2023-04-25T07:07:06.965Z,34.11
2023-04-25T07:08:24.032Z,35.24
2023-04-25T07:09:30.021Z,34.88
2023-04-25T07:10:33.370Z,33.63
2023-04-25T07:11:36.740Z,33.04
2023-04-25T07:12:43.177Z,33.53
2023-04-25T07:13:46.269Z,34.05
2023-04-25T07:14:50.423Z,34.05
2023-04-25T07:15:57.408Z,33.65
2023-04-25T07:17:01.175Z,34.07
2023-04-25T07:18:06.184Z,33.87
2023-04-25T07:19:09.644Z,34.18
2023-04-25T07:20:14.704Z,35.00
2023-04-25T07:21:18.223Z,35.90
2023-04-25T07:22:21.812Z,35.10
2023-04-25T07:23:26.690Z,35.27
2023-04-25T07:24:31.267Z,35.62
2023-04-25T07:25:35.051Z,35.83
2023-04-25T07:26:38.841Z,35.48
2023-04-25T07:28:00.563Z,36.00
2023-04-25T07:29:05.512Z,35.52
2023-04-25T07:30:09.779Z,34.70
2023-04-25T07:31:15.041Z,34.94
2023-04-25T07:32:18.476Z,34.90
2023-04-25T07:33:22.040Z,35.06
2023-04-25T07:34:27.664Z,34.57
2023-04-25T07:35:30.930Z,34.41
2023-04-25T07:36:34.550Z,33.61
2023-04-25T07:37:38.043Z,33.94
2023-04-25T07:38:49.350Z,33.54
2023-04-25T07:39:53.330Z,33.68
2023-04-25T07:40:56.812Z,33.26
2023-04-25T07:42:02.417Z,33.36
2023-04-25T07:43:06.282Z,33.37
2023-04-25T07:44:10.981Z,33.37
2023-04-25T07:45:14.198Z,33.17
2023-04-25T07:46:17.465Z,32.78
2023-04-25T07:47:21.089Z,33.12
2023-04-25T07:48:24.412Z,33.28
2023-04-25T07:49:29.144Z,32.62
2023-04-25T07:50:35.678Z,32.55
2023-04-25T07:51:41.507Z,32.50
2023-04-25T07:52:45.822Z,32.30
2023-04-25T07:53:55.896Z,31.64
2023-04-25T07:55:00.348Z,32.31
2023-04-25T07:56:07.386Z,32.72
2023-04-25T07:57:12.167Z,32.25
2023-04-25T07:58:17.234Z,31.99
2023-04-25T07:59:22.959Z,32.06
2023-04-25T08:00:26.441Z,32.08
2023-04-25T08:01:31.197Z,31.17
2023-04-25T08:02:36.512Z,30.56
2023-04-25T08:03:40.025Z,30.83
2023-04-25T08:04:45.749Z,30.78
2023-04-25T08:05:51.002Z,30.38
2023-04-25T08:07:00.314Z,30.48
2023-04-25T08:08:08.506Z,30.54
2023-04-25T08:09:12.136Z,30.11
2023-04-25T08:10:17.327Z,30.22
2023-04-25T08:11:22.067Z,29.69
2023-04-25T08:12:28.710Z,29.46
2023-04-25T08:13:32.625Z,29.76
2023-04-25T08:14:37.059Z,29.24
2023-04-25T08:15:41.655Z,29.15
2023-04-25T08:16:45.337Z,29.35
2023-04-25T08:17:48.332Z,28.64
2023-04-25T08:18:52.836Z,28.48
2023-04-25T08:20:00.333Z,28.52
2023-04-25T08:21:05.429Z,27.90
2023-04-25T08:22:10.996Z,27.97
2023-04-25T08:23:16.496Z,27.40
2023-04-25T08:24:31.748Z,26.40
2023-04-25T08:25:35.410Z,26.75
2023-04-25T08:26:39.029Z,27.22
2023-04-25T08:27:41.592Z,27.30
2023-04-25T08:28:46.553Z,27.36
2023-04-25T08:29:50.163Z,27.64
2023-04-25T08:30:54.246Z,27.20
2023-04-25T08:31:58.429Z,27.30
2023-04-25T08:33:03.262Z,27.03
2023-04-25T08:34:14.000Z,27.22
2023-04-25T08:35:22.320Z,26.99
2023-04-25T08:36:38.570Z,27.26
2023-04-25T08:37:33.401Z,27.50
2023-04-25T08:38:38.674Z,27.51
2023-04-25T08:39:43.629Z,27.79
2023-04-25T08:40:54.136Z,27.60
2023-04-25T08:42:02.140Z,27.53
2023-04-25T08:43:06.481Z,27.81
2023-04-25T08:44:11.560Z,27.62
2023-04-25T08:45:14.017Z,26.82
2023-04-25T08:46:22.098Z,26.55
2023-04-25T08:47:29.167Z,25.89
2023-04-25T08:48:36.020Z,25.20
2023-04-25T08:49:41.389Z,24.87
2023-04-25T08:50:51.172Z,25.87
2023-04-25T08:51:57.625Z,26.46
2023-04-25T08:53:04.194Z,27.14
2023-04-25T08:54:33.521Z,26.61
2023-04-25T08:55:25.024Z,26.02
2023-04-25T08:56:31.126Z,27.21
2023-04-25T08:57:35.427Z,27.21
2023-04-25T08:58:38.890Z,26.54
2023-04-25T08:59:44.752Z,26.84
2023-04-25T09:00:50.517Z,26.90
2023-04-25T09:01:55.727Z,27.43
2023-04-25T09:03:00.458Z,27.33
2023-04-25T09:04:05.866Z,27.46
2023-04-25T09:05:12.633Z,27.54
2023-04-25T09:06:17.783Z,26.96
2023-04-25T09:07:22.690Z,25.74
2023-04-25T09:08:28.285Z,25.53
2023-04-25T09:09:31.906Z,25.01
2023-04-25T09:10:36.050Z,24.77
2023-04-25T09:11:39.536Z,25.22
2023-04-25T09:12:44.822Z,25.59
2023-04-25T09:13:48.226Z,26.00
2023-04-25T09:15:08.898Z,26.21
2023-04-25T09:16:23.257Z,26.53
2023-04-25T09:17:33.398Z,27.08
2023-04-25T09:18:37.346Z,27.48
2023-04-25T09:19:45.025Z,27.60
2023-04-25T09:21:55.580Z,27.42
2023-04-25T09:23:07.398Z,26.26
2023-04-25T09:24:15.421Z,25.85
2023-04-25T09:25:19.035Z,25.69
2023-04-25T09:26:22.561Z,26.38
2023-04-25T09:27:29.199Z,25.94
2023-04-25T09:28:42.580Z,26.00
2023-04-25T09:29:47.677Z,25.95
2023-04-25T09:30:52.437Z,26.32
2023-04-25T09:32:14.569Z,26.24
2023-04-25T09:33:20.607Z,26.46
2023-04-25T09:34:28.749Z,26.67
2023-04-25T09:35:34.629Z,26.82
2023-04-25T09:36:38.281Z,26.57
2023-04-25T09:37:53.461Z,26.07
2023-04-25T09:39:18.911Z,26.33
2023-04-25T09:40:24.305Z,26.75
2023-04-25T09:41:29.753Z,26.43
2023-04-25T09:42:37.080Z,26.07
2023-04-25T09:43:41.188Z,25.46
2023-04-25T09:44:50.444Z,25.59
2023-04-25T09:45:57.436Z,25.73
2023-04-25T09:47:02.151Z,25.07
2023-04-25T09:48:08.447Z,24.22
2023-04-25T09:49:14.906Z,24.23
2023-04-25T09:50:26.484Z,23.75
2023-04-25T09:51:31.738Z,23.70
2023-04-25T09:52:35.199Z,23.97
2023-04-25T09:53:51.456Z,24.75
2023-04-25T09:54:59.723Z,25.33
2023-04-25T09:56:07.010Z,25.64
2023-04-25T09:57:20.632Z,25.84
2023-04-25T09:58:26.537Z,25.81
2023-04-25T09:59:33.211Z,25.78
2023-04-25T10:00:39.578Z,25.79
2023-04-25T10:01:44.942Z,25.51
2023-04-25T10:02:51.000Z,25.40
2023-04-25T10:04:14.732Z,25.51
2023-04-25T10:05:36.155Z,25.27
2023-04-25T10:06:38.875Z,25.52
2023-04-25T10:07:42.596Z,25.50
2023-04-25T10:08:49.225Z,25.44
2023-04-25T10:09:54.409Z,25.60
2023-04-25T10:10:57.805Z,25.67
2023-04-25T10:12:02.147Z,25.74
2023-04-25T10:13:07.130Z,26.08
2023-04-25T10:14:09.540Z,26.14
2023-04-25T10:15:15.271Z,25.66
2023-04-25T10:16:18.811Z,25.92
2023-04-25T10:17:23.493Z,25.96
2023-04-25T10:18:29.247Z,25.81
2023-04-25T10:19:33.158Z,25.68
2023-04-25T10:20:36.764Z,25.76
2023-04-25T10:21:45.078Z,25.55
2023-04-25T10:22:49.832Z,25.42
2023-04-25T10:23:53.351Z,25.37
2023-04-25T10:24:56.945Z,25.47
2023-04-25T10:26:01.284Z,25.73
2023-04-25T10:27:06.058Z,25.58
2023-04-25T10:28:09.147Z,25.40
2023-04-25T10:29:12.596Z,25.07
2023-04-25T10:30:17.196Z,24.83
2023-04-25T10:31:20.867Z,24.33
2023-04-25T10:32:25.554Z,24.58
2023-04-25T10:33:33.343Z,23.84
2023-04-25T10:34:40.616Z,23.91
2023-04-25T10:35:45.942Z,23.81
2023-04-25T10:36:52.507Z,23.58
2023-04-25T10:38:05.914Z,23.38
2023-04-25T10:39:10.809Z,23.31
2023-04-25T10:40:15.052Z,23.24
2023-04-25T10:41:22.811Z,23.41
2023-04-25T10:42:26.509Z,23.45
2023-04-25T10:43:36.536Z,23.76
2023-04-25T10:44:42.648Z,23.56
2023-04-25T10:45:47.935Z,23.52
2023-04-25T10:46:51.906Z,23.30
2023-04-25T10:47:56.929Z,23.44
2023-04-25T10:49:02.700Z,23.49
2023-04-25T10:50:08.294Z,23.61
2023-04-25T10:51:12.261Z,23.71
2023-04-25T10:52:16.780Z,23.91
2023-04-25T10:53:20.082Z,23.81
2023-04-25T10:54:26.350Z,23.50
2023-04-25T10:55:32.113Z,23.35
2023-04-25T10:56:44.494Z,23.14
2023-04-25T10:57:49.999Z,22.93
2023-04-25T10:58:54.626Z,22.62
2023-04-25T11:00:01.684Z,22.77
2023-04-25T11:01:05.345Z,23.27
2023-04-25T11:02:11.197Z,23.32
2023-04-25T11:03:16.687Z,23.30
2023-04-25T11:04:30.492Z,23.49
2023-04-25T11:07:05.882Z,23.62
2023-04-25T11:08:08.201Z,23.31
2023-04-25T11:09:16.072Z,23.11
2023-04-25T11:10:22.197Z,22.96
2023-04-25T11:11:27.914Z,22.94
2023-04-25T11:12:32.053Z,22.58
2023-04-25T11:13:35.344Z,22.39
2023-04-25T11:14:37.783Z,23.54
2023-04-25T11:15:41.509Z,22.75
2023-04-25T11:16:44.745Z,22.99
2023-04-25T11:17:49.188Z,23.17
2023-04-25T11:18:53.954Z,23.14
2023-04-25T11:19:57.437Z,23.19
2023-04-25T11:21:00.713Z,23.23
2023-04-25T11:22:03.817Z,23.57
2023-04-25T11:23:07.003Z,23.68
2023-04-25T11:24:10.108Z,23.56
2023-04-25T11:25:15.766Z,23.45
2023-04-25T11:26:21.191Z,23.06
2023-04-25T11:27:26.220Z,23.08
2023-04-25T11:28:29.864Z,22.90
2023-04-25T11:29:33.189Z,22.81
2023-04-25T11:30:36.655Z,23.06
2023-04-25T11:31:40.801Z,22.93
2023-04-25T11:32:44.893Z,23.09
2023-04-25T11:33:47.818Z,23.35
2023-04-25T11:34:51.946Z,23.34
2023-04-25T11:35:57.778Z,23.45
2023-04-25T11:37:03.634Z,23.53
2023-04-25T11:38:07.969Z,23.46
2023-04-25T11:39:11.903Z,23.32
2023-04-25T11:40:17.132Z,23.15
2023-04-25T11:41:21.841Z,23.21
2023-04-25T11:42:25.237Z,23.18
2023-04-25T11:43:29.777Z,22.97
2023-04-25T11:44:33.709Z,22.88
2023-04-25T11:45:38.662Z,22.80
2023-04-25T11:46:43.640Z,22.93
2023-04-25T11:47:46.863Z,23.02
2023-04-25T11:48:53.345Z,22.88
2023-04-25T11:49:57.081Z,23.01
2023-04-25T11:51:00.900Z,22.85
2023-04-25T11:52:03.571Z,22.79
2023-04-25T11:53:06.748Z,22.62
2023-04-25T11:54:11.353Z,22.55
2023-04-25T11:55:18.668Z,22.69
2023-04-25T11:56:22.637Z,22.64
2023-04-25T11:57:27.138Z,22.69
2023-04-25T11:58:31.505Z,23.07
2023-04-25T11:59:34.707Z,22.93
2023-04-25T12:00:37.029Z,23.01
2023-04-25T12:01:43.057Z,23.49
2023-04-25T12:02:48.881Z,23.42
2023-04-25T12:03:53.370Z,23.31
2023-04-25T12:05:04.044Z,23.22
2023-04-25T12:06:05.287Z,23.44
2023-04-25T12:07:12.315Z,23.57
2023-04-25T12:08:17.544Z,23.25
2023-04-25T12:09:34.748Z,23.22
2023-04-25T12:10:40.163Z,23.26
2023-04-25T12:11:45.204Z,23.38
2023-04-25T12:12:50.379Z,23.31
2023-04-25T12:13:54.406Z,23.55
2023-04-25T12:14:56.657Z,23.61
2023-04-25T12:16:03.278Z,23.67
2023-04-25T12:17:08.967Z,23.63
2023-04-25T12:18:13.061Z,23.73
2023-04-25T12:19:16.737Z,23.37
2023-04-25T12:20:22.951Z,23.27
2023-04-25T12:21:29.060Z,22.90
2023-04-25T12:22:36.758Z,22.90
2023-04-25T12:23:44.338Z,23.18
2023-04-25T12:24:47.722Z,23.45
2023-04-25T12:25:52.362Z,23.29
2023-04-25T12:27:03.292Z,23.27
2023-04-25T12:28:14.767Z,23.53
2023-04-25T12:29:27.668Z,23.41
2023-04-25T12:30:30.449Z,23.44
2023-04-25T12:31:33.592Z,23.61
2023-04-25T12:32:39.315Z,23.36
2023-04-25T12:33:43.452Z,23.32
2023-04-25T12:34:47.082Z,23.02
2023-04-25T12:35:50.563Z,23.03
2023-04-25T12:36:57.009Z,23.05
2023-04-25T12:37:59.560Z,22.79
2023-04-25T12:39:03.909Z,22.80
2023-04-25T12:40:09.426Z,23.08
2023-04-25T12:41:14.077Z,23.00
2023-04-25T12:42:18.372Z,22.82
2023-04-25T12:43:22.944Z,22.66
2023-04-25T12:44:25.712Z,22.60
2023-04-25T12:45:30.357Z,22.72
2023-04-25T12:46:33.799Z,22.75
2023-04-25T12:47:36.609Z,22.64
2023-04-25T12:48:40.271Z,22.91
2023-04-25T12:49:42.613Z,22.92
2023-04-25T12:50:45.318Z,22.87
2023-04-25T12:51:50.295Z,22.89
2023-04-25T12:52:53.745Z,22.83
2023-04-25T12:53:58.926Z,22.91
2023-04-25T12:55:03.461Z,22.98
2023-04-25T12:56:07.859Z,23.04
2023-04-25T12:57:10.816Z,22.96
2023-04-25T12:59:18.152Z,23.16
2023-04-25T13:00:21.745Z,23.11
2023-04-25T13:01:26.242Z,23.17
2023-04-25T13:02:29.649Z,22.96
2023-04-25T13:03:34.017Z,23.06
2023-04-25T13:04:38.389Z,23.01
2023-04-25T13:05:42.258Z,23.09
2023-04-25T13:06:44.787Z,22.90
2023-04-25T13:07:48.139Z,22.68
2023-04-25T13:08:53.286Z,22.84
2023-04-25T13:09:56.181Z,22.93
2023-04-25T13:10:59.596Z,22.71
2023-04-25T13:12:02.780Z,23.05
2023-04-25T13:13:08.077Z,23.03
2023-04-25T13:14:11.898Z,22.98
2023-04-25T13:15:17.082Z,22.86
2023-04-25T13:16:25.888Z,22.68
2023-04-25T13:17:30.137Z,22.86
2023-04-25T13:18:33.847Z,22.65
2023-04-25T13:19:40.498Z,22.46
2023-04-25T13:20:43.872Z,22.50
2023-04-25T13:21:47.267Z,22.39
2023-04-25T13:22:50.947Z,22.49
2023-04-25T13:23:54.596Z,22.13
2023-04-25T13:24:59.049Z,21.99
2023-04-25T13:26:05.164Z,22.06
2023-04-25T13:27:09.817Z,22.01
2023-04-25T13:28:13.324Z,22.24
2023-04-25T13:29:15.919Z,22.35
2023-04-25T13:30:21.473Z,22.32
2023-04-25T13:31:25.336Z,22.21
2023-04-25T13:32:28.402Z,22.18
2023-04-25T13:33:32.558Z,21.89
2023-04-25T13:34:35.700Z,21.71
2023-04-25T13:35:41.183Z,21.70
2023-04-25T13:36:45.347Z,21.98
2023-04-25T13:37:48.912Z,22.06
2023-04-25T13:38:51.392Z,22.09
2023-04-25T13:39:56.566Z,22.16
2023-04-25T13:40:59.984Z,22.15
2023-04-25T13:42:02.532Z,22.29
2023-04-25T13:43:06.822Z,22.24
2023-04-25T13:44:09.546Z,22.23
2023-04-25T13:45:12.857Z,22.16
2023-04-25T13:46:35.247Z,22.16
2023-04-25T13:47:25.722Z,22.23
2023-04-25T13:48:28.694Z,22.12
2023-04-25T13:49:32.395Z,22.24
2023-04-25T13:50:39.092Z,22.45
2023-04-25T13:51:43.927Z,22.31
2023-04-25T13:52:50.335Z,22.31
2023-04-25T13:53:54.154Z,22.21
2023-04-25T13:54:57.970Z,22.31
2023-04-25T13:56:04.812Z,22.28
2023-04-25T13:57:08.966Z,22.32
2023-04-25T13:58:13.327Z,22.44
2023-04-25T13:59:15.647Z,22.33
2023-04-25T14:00:19.251Z,22.37
2023-04-25T14:01:23.302Z,22.36
2023-04-25T14:02:28.760Z,22.33
2023-04-25T14:03:33.795Z,22.13
2023-04-25T14:04:37.382Z,21.94
2023-04-25T14:05:41.586Z,21.78
2023-04-25T14:06:44.891Z,22.15
2023-04-25T14:07:47.343Z,22.36
2023-04-25T14:08:51.590Z,22.32
2023-04-25T14:09:54.222Z,22.43
2023-04-25T14:10:56.848Z,22.53
2023-04-25T14:12:00.423Z,22.35
2023-04-25T14:13:08.937Z,22.44
2023-04-25T14:14:11.192Z,22.33
2023-04-25T14:15:14.475Z,22.34
2023-04-25T14:16:18.382Z,22.34
2023-04-25T14:17:22.811Z,22.16
2023-04-25T14:18:26.103Z,22.08
2023-04-25T14:19:30.596Z,22.35